Bischofshofen, Autriche

12:31 CEST le 27 avril 2015 (GMT +0200)
Muehlach am Hochkoenig | | Change Station
CLOSE
Current Station
Stations météorologiques personnelles
Location: Mühlbach Am Hochkönig, SALZBURG
Altitude: 2785 ft
Stations météo à proximité

Alt. 2785 ft 47.38 °N, 13.13 °E | Updated 3 seconds ago

Mostly Cloudy
Nuageux
66.4 ° F
Paraît 66.4 ° F
N
5.1
Vent Variable Vent de SSO
Gusts 7.4 mph

Aujourd'hui
Haut(e) -- | Bas -- ° F
--% Risque de précip.
Hier
Haut(e) -- | Bas -- ° F
Precip. -- pouce
5:58 AM 8:12 PM
Lune gibbeuse croissante, 64% visible
Pression 29.56 pouce
Visibilité 6.2 Miles terrestres
Nuages Peu 6000 ft
Nuageux 30000 ft
Point de rosée 35 ° F
Humidité 31%
Précipitations 0.00 pouce
Profondeur de la couche neigeuse Non disponible.
UV 3.0 sur 12
Pollen Non disponible.
Qualité de l'air Non disponible.
Flu Activity Non disponible.
METAR LOWS 271020Z 14005KT 9999 FEW060 BKN300 23/07 Q1001 NOSIG

More Conditions Fewer Conditions

Pression 29.56 pouce
Visibilité 6.2 Miles terrestres
Nuages Peu 6000 ft
Nuageux 30000 ft
Point de rosée 35 ° F
Humidité 31%
Précipitations 0.00 pouce
Profondeur de la couche neigeuse Non disponible.
UV 3.0 sur 12
Pollen Non disponible.
Qualité de l'air Non disponible.
Flu Activity Non disponible.
METAR LOWS 271020Z 14005KT 9999 FEW060 BKN300 23/07 Q1001 NOSIG

More Conditions Fewer Conditions

10-Day Weather Forecast

Almanac

Astronomie

Apr. 27, 2015 Lever Coucher
Temps réel
Crépuscule civil
Crépuscule nautique
Crépuscule astronomique
Lune
Durée de lumière visible
Longueur du jour
Tomorrow will be .
, % of the Moon is Illuminated

Extrêmes aujourd'hui

Country Highs Country Lows

Community

WunderPhotos

Upload Photos

1,817,278 Photos téléchargées !

WunderBlogs® & News

Nearby

Qualité de l'air

  Qualité de l'air Indice de la qualité de l'air Polluant
Not available.

Épaisseur de neige

Station Depth Altitude

Activité sismique

Ville Distance Mag. Time & Date
Minimum magnitude displayed is 2.5.

Températures des eaux côtières

Lieu Température

Stations

Stations météo à proximité

Emplacement de la station Température Refroidissement éolien Point de rosée Humidité Vent Precip. Alt. Mise à jour Type